Terminal Aerodrome Forecast
Issued by NWS

Home | Current Version | Previous Version | Text Only | Print | Product List | Glossary On
Versions: 1 2 3 4 5 6 7 8 9 10 11 12 13 14 15 16 17
000
FTUS45 KFGZ 251100
TAFSEZ
TAF
KSEZ 251137Z 2512/2612 17005KT P6SM BKN025 BKN035
      TEMPO 2517/2519 22013G23KT SCT020 BKN030
     FM251900 23014G28KT P6SM VCSH BKN012 BKN025 OVC040
      TEMPO 2520/2524 5SM -SHRA BR SCT018 OVC022
     FM260100 23010G17KT 4SM SHRA BR OVC018
     FM260800 25010KT 3SM -SHRA BR OVC006=

USA.gov is the U.S. government's official web portal to all federal, state and local government web resources and services.